createdAt,value
2022-08-17T00:00:44.062Z,1.75
2022-08-17T00:03:24.158Z,2.10
2022-08-17T00:05:55.845Z,2.80
2022-08-17T00:08:30.490Z,2.30
2022-08-17T00:11:01.664Z,2.45
2022-08-17T00:13:35.154Z,2.25
2022-08-17T00:16:10.302Z,2.53
2022-08-17T00:19:02.080Z,2.33
2022-08-17T00:22:29.917Z,2.55
2022-08-17T00:24:20.695Z,2.50
2022-08-17T00:26:50.370Z,2.50
2022-08-17T00:29:20.328Z,2.00
2022-08-17T00:31:52.618Z,1.95
2022-08-17T00:34:22.268Z,2.20
2022-08-17T00:36:51.795Z,2.13
2022-08-17T00:39:21.295Z,2.25
2022-08-17T00:41:50.830Z,2.22
2022-08-17T00:44:20.378Z,1.90
2022-08-17T00:46:52.487Z,1.85
2022-08-17T00:49:23.715Z,2.70
2022-08-17T00:51:58.827Z,2.28
2022-08-17T00:54:33.910Z,2.53
2022-08-17T00:57:16.241Z,2.17
2022-08-17T00:59:56.051Z,2.40
2022-08-17T01:02:42.296Z,1.92
2022-08-17T01:05:18.499Z,3.00
2022-08-17T01:07:50.889Z,2.80
2022-08-17T01:10:59.497Z,2.17
2022-08-17T01:13:15.495Z,2.85
2022-08-17T01:15:50.591Z,2.13
2022-08-17T01:18:22.990Z,2.10
2022-08-17T01:20:54.607Z,2.50
2022-08-17T01:23:28.914Z,2.72
2022-08-17T01:26:01.870Z,2.25
2022-08-17T01:28:53.902Z,2.58
2022-08-17T01:31:23.833Z,2.42
2022-08-17T01:33:53.386Z,2.45
2022-08-17T01:36:23.230Z,2.47
2022-08-17T01:38:55.344Z,2.60
2022-08-17T01:41:26.962Z,2.42
2022-08-17T01:44:01.684Z,2.40
2022-08-17T01:46:36.108Z,2.47
2022-08-17T01:49:09.301Z,2.42
2022-08-17T01:51:38.941Z,2.42
2022-08-17T01:54:14.115Z,2.85
2022-08-17T01:56:47.236Z,2.60
2022-08-17T01:59:18.717Z,2.35
2022-08-17T02:01:49.021Z,2.15
2022-08-17T02:04:18.929Z,2.10
2022-08-17T02:06:53.265Z,2.47
2022-08-17T02:09:29.523Z,2.10
2022-08-17T02:12:37.383Z,2.00
2022-08-17T02:14:53.965Z,2.15
2022-08-17T02:17:23.492Z,2.33
2022-08-17T02:19:53.019Z,2.40
2022-08-17T02:22:22.614Z,2.08
2022-08-17T02:25:01.076Z,1.98
2022-08-17T02:27:32.038Z,2.05
2022-08-17T02:30:01.555Z,1.95
2022-08-17T02:32:31.114Z,2.10
2022-08-17T02:35:01.408Z,2.38
2022-08-17T02:37:32.331Z,2.75
2022-08-17T02:40:06.357Z,1.98
2022-08-17T02:42:39.860Z,2.22
2022-08-17T02:45:14.137Z,2.22
2022-08-17T02:47:44.626Z,1.77
2022-08-17T02:50:17.496Z,2.33
2022-08-17T02:53:01.384Z,1.88
2022-08-17T02:55:41.731Z,1.77
2022-08-17T02:58:13.598Z,2.33
2022-08-17T03:00:47.885Z,2.10
2022-08-17T03:03:20.104Z,1.95
2022-08-17T03:05:53.191Z,1.95
2022-08-17T03:08:23.451Z,2.35
2022-08-17T03:10:56.013Z,2.17
2022-08-17T03:13:26.359Z,2.40
2022-08-17T03:15:56.001Z,2.42
2022-08-17T03:18:26.370Z,2.40
2022-08-17T03:20:57.910Z,2.42
2022-08-17T03:23:27.892Z,1.98
2022-08-17T03:26:02.870Z,2.15
2022-08-17T03:28:32.885Z,2.42
2022-08-17T03:31:03.087Z,2.10
2022-08-17T03:33:33.041Z,1.75
2022-08-17T03:36:02.752Z,2.38
2022-08-17T03:38:38.897Z,2.15
2022-08-17T03:41:11.820Z,2.00
2022-08-17T03:43:41.322Z,2.20
2022-08-17T03:46:34.359Z,1.90
2022-08-17T03:49:18.295Z,2.03
2022-08-17T03:52:00.429Z,2.10
2022-08-17T03:54:42.598Z,2.30
2022-08-17T03:57:15.087Z,2.45
2022-08-17T03:59:45.310Z,1.88
2022-08-17T04:02:20.069Z,1.90
2022-08-17T04:04:50.969Z,2.05
2022-08-17T04:07:21.674Z,1.75
2022-08-17T04:09:51.301Z,2.38
2022-08-17T04:12:30.796Z,1.88
2022-08-17T04:15:01.033Z,2.58
2022-08-17T04:17:31.947Z,2.00
2022-08-17T04:20:01.479Z,2.25
2022-08-17T04:22:34.231Z,2.25
2022-08-17T04:25:09.308Z,1.95
2022-08-17T04:27:41.461Z,2.42
2022-08-17T04:30:13.025Z,2.00
2022-08-17T04:33:03.713Z,2.53
2022-08-17T04:35:37.968Z,1.90
2022-08-17T04:38:08.070Z,2.03
2022-08-17T04:40:50.515Z,2.60
2022-08-17T04:43:25.357Z,3.08
2022-08-17T04:45:57.311Z,2.13
2022-08-17T04:48:35.597Z,2.08
2022-08-17T04:51:09.839Z,1.92
2022-08-17T04:53:40.621Z,1.48
2022-08-17T04:56:16.663Z,1.95
2022-08-17T04:58:52.735Z,2.08
2022-08-17T05:01:24.701Z,2.47
2022-08-17T05:03:56.262Z,1.70
2022-08-17T05:06:26.322Z,2.22
2022-08-17T05:08:56.613Z,1.52
2022-08-17T05:11:28.211Z,1.88
2022-08-17T05:14:01.696Z,1.85
2022-08-17T05:16:32.129Z,1.88
2022-08-17T05:19:02.719Z,2.20
2022-08-17T05:21:32.924Z,1.70
2022-08-17T05:24:07.127Z,2.03
2022-08-17T05:26:53.278Z,1.65
2022-08-17T05:29:35.235Z,1.73
2022-08-17T05:32:38.088Z,1.80
2022-08-17T05:35:01.743Z,2.05
2022-08-17T05:37:31.266Z,1.95
2022-08-17T05:40:00.871Z,2.55
2022-08-17T05:42:30.466Z,1.77
2022-08-17T05:45:02.963Z,1.75
2022-08-17T05:47:33.261Z,1.85
2022-08-17T05:50:09.827Z,2.17
2022-08-17T05:52:48.582Z,2.05
2022-08-17T05:55:26.475Z,2.45
2022-08-17T05:58:08.301Z,3.30
2022-08-17T06:00:54.164Z,2.20
2022-08-17T06:03:39.111Z,1.98
2022-08-17T06:06:35.814Z,2.03
2022-08-17T06:11:53.447Z,2.65
2022-08-17T06:14:38.608Z,1.88
2022-08-17T06:17:22.013Z,2.35
2022-08-17T06:19:55.843Z,1.58
2022-08-17T06:22:34.134Z,1.83
2022-08-17T06:25:09.921Z,1.63
2022-08-17T06:27:43.952Z,1.85
2022-08-17T06:30:16.856Z,1.52
2022-08-17T06:32:52.690Z,1.70
2022-08-17T06:35:31.797Z,1.77
2022-08-17T06:38:09.492Z,1.20
2022-08-17T06:41:12.989Z,1.50
2022-08-17T06:44:03.868Z,1.65
2022-08-17T06:46:38.434Z,2.03
2022-08-17T06:49:25.965Z,1.48
2022-08-17T06:52:03.553Z,1.50
2022-08-17T06:54:41.917Z,1.67
2022-08-17T06:57:18.846Z,1.70
2022-08-17T06:59:55.805Z,1.00
2022-08-17T07:02:52.884Z,1.55
2022-08-17T07:05:29.430Z,1.80
2022-08-17T07:08:05.807Z,1.60
2022-08-17T07:10:42.690Z,0.93
2022-08-17T07:13:25.472Z,1.17
2022-08-17T07:16:01.143Z,1.60
2022-08-17T07:21:18.028Z,1.20
2022-08-17T07:24:03.358Z,1.13
2022-08-17T07:26:32.927Z,1.45
2022-08-17T07:29:03.357Z,1.75
2022-08-17T07:31:33.945Z,1.15
2022-08-17T07:34:08.793Z,1.70
2022-08-17T07:36:42.080Z,1.70
2022-08-17T07:39:12.854Z,1.40
2022-08-17T07:41:53.151Z,1.40
2022-08-17T07:44:28.161Z,1.58
2022-08-17T07:47:11.442Z,1.52
2022-08-17T07:49:44.704Z,1.42
2022-08-17T07:52:51.366Z,1.52
2022-08-17T07:55:40.529Z,1.05
2022-08-17T07:58:10.675Z,1.45
2022-08-17T08:00:40.233Z,1.20
2022-08-17T08:03:27.328Z,1.27
2022-08-17T08:06:01.346Z,1.85
2022-08-17T08:08:37.517Z,0.88
2022-08-17T08:11:12.126Z,1.10
2022-08-17T08:13:45.657Z,1.13
2022-08-17T08:16:24.415Z,0.98
2022-08-17T08:18:57.820Z,1.20
2022-08-17T08:21:38.085Z,1.23
2022-08-17T08:24:31.085Z,1.00
2022-08-17T08:27:14.108Z,1.30
2022-08-17T08:29:53.975Z,1.02
2022-08-17T08:32:38.353Z,1.25
2022-08-17T08:35:13.091Z,1.27
2022-08-17T08:37:50.165Z,1.37
2022-08-17T08:40:38.399Z,1.13
2022-08-17T08:43:18.923Z,0.90
2022-08-17T08:45:56.735Z,1.05
2022-08-17T08:48:55.794Z,1.02
2022-08-17T08:51:39.388Z,0.82
2022-08-17T08:54:17.190Z,1.10
2022-08-17T08:57:24.495Z,1.20
2022-08-17T09:00:06.333Z,1.50
2022-08-17T09:03:13.443Z,1.27
2022-08-17T09:06:02.895Z,0.90
2022-08-17T09:08:39.565Z,1.20
2022-08-17T09:11:14.162Z,1.50
2022-08-17T09:13:55.500Z,1.13
2022-08-17T09:16:30.447Z,1.42
2022-08-17T09:19:10.846Z,1.07
2022-08-17T09:21:48.735Z,1.77
2022-08-17T09:24:28.340Z,1.65
2022-08-17T09:27:03.831Z,1.25
2022-08-17T09:29:35.892Z,1.40
2022-08-17T09:32:12.722Z,1.55
2022-08-17T09:34:52.718Z,1.00
2022-08-17T09:37:28.474Z,1.23
2022-08-17T09:40:11.491Z,1.08
2022-08-17T09:42:50.144Z,1.25
2022-08-17T09:45:30.588Z,1.30
2022-08-17T09:48:06.449Z,1.20
2022-08-17T09:50:57.378Z,0.85
2022-08-17T09:53:36.201Z,1.10
2022-08-17T09:56:24.074Z,0.93
2022-08-17T09:59:21.927Z,1.30
2022-08-17T10:01:58.226Z,1.20
2022-08-17T10:04:41.377Z,1.05
2022-08-17T10:07:20.079Z,1.15
2022-08-17T10:10:00.428Z,1.35
2022-08-17T10:12:46.410Z,1.20
2022-08-17T10:15:25.139Z,1.00
2022-08-17T10:18:21.424Z,1.88
2022-08-17T10:21:18.491Z,1.17
2022-08-17T10:24:08.057Z,1.17
2022-08-17T10:26:56.293Z,1.33
2022-08-17T10:29:32.702Z,0.98
2022-08-17T10:32:28.073Z,1.60
2022-08-17T10:35:28.067Z,1.30
2022-08-17T10:38:24.496Z,1.27
2022-08-17T10:41:03.404Z,1.20
2022-08-17T10:43:41.864Z,1.08
2022-08-17T10:46:31.310Z,1.00
2022-08-17T10:49:25.385Z,1.20
2022-08-17T10:51:57.030Z,1.45
2022-08-17T10:54:48.409Z,1.10
2022-08-17T10:57:40.070Z,0.98
2022-08-17T11:00:15.893Z,1.02
2022-08-17T11:02:50.507Z,0.88
2022-08-17T11:05:44.389Z,0.98
2022-08-17T11:08:36.182Z,1.10
2022-08-17T11:11:36.122Z,1.10
2022-08-17T11:14:28.256Z,1.10
2022-08-17T11:17:19.064Z,1.33
2022-08-17T11:20:21.374Z,1.27
2022-08-17T11:23:10.184Z,0.95
2022-08-17T11:25:43.810Z,1.45
2022-08-17T11:28:19.395Z,1.38
2022-08-17T11:33:56.100Z,1.42
2022-08-17T11:36:36.905Z,1.08
2022-08-17T11:39:19.265Z,1.17
2022-08-17T11:41:56.766Z,1.15
2022-08-17T11:44:42.678Z,1.33
2022-08-17T11:50:27.969Z,0.63
2022-08-17T11:52:58.020Z,1.50
2022-08-17T11:56:04.754Z,0.90
2022-08-17T12:01:16.249Z,1.30
2022-08-17T12:03:55.919Z,1.20
2022-08-17T12:06:44.014Z,1.20
2022-08-17T12:09:19.850Z,1.10
2022-08-17T12:12:12.182Z,0.90
2022-08-17T12:15:09.631Z,1.00
2022-08-17T12:17:40.577Z,1.27
2022-08-17T12:20:18.027Z,1.40
2022-08-17T12:22:56.419Z,0.77
2022-08-17T12:25:34.167Z,1.15
2022-08-17T12:28:07.178Z,1.30
2022-08-17T12:30:38.871Z,1.10
2022-08-17T12:33:25.314Z,1.05
2022-08-17T12:36:05.460Z,1.75
2022-08-17T12:38:37.212Z,1.15
2022-08-17T12:41:23.419Z,1.10
2022-08-17T12:44:02.274Z,1.33
2022-08-17T12:46:36.018Z,1.08
2022-08-17T12:49:18.177Z,1.30
2022-08-17T12:51:50.745Z,1.00
2022-08-17T12:54:31.442Z,0.88
2022-08-17T12:57:07.259Z,1.15
2022-08-17T12:59:37.055Z,1.08
2022-08-17T13:02:07.100Z,1.13
2022-08-17T13:04:37.588Z,1.10
2022-08-17T13:07:09.786Z,1.30
2022-08-17T13:09:40.524Z,0.98
2022-08-17T13:12:10.991Z,0.77
2022-08-17T13:14:40.615Z,0.98
2022-08-17T13:17:13.612Z,0.93
2022-08-17T13:19:52.227Z,1.02
2022-08-17T13:22:26.375Z,0.80
2022-08-17T13:24:58.812Z,0.90
2022-08-17T13:27:31.445Z,1.00
2022-08-17T13:30:05.635Z,1.35
2022-08-17T13:32:43.744Z,1.10
2022-08-17T13:35:39.018Z,1.20
2022-08-17T13:38:15.605Z,1.02
2022-08-17T13:40:53.326Z,1.15
2022-08-17T13:43:45.081Z,0.80
2022-08-17T13:46:21.486Z,0.90
2022-08-17T13:49:01.912Z,1.10
2022-08-17T13:51:37.569Z,1.48
2022-08-17T13:54:25.156Z,1.40
2022-08-17T13:57:00.500Z,1.33
2022-08-17T14:02:28.628Z,0.93
2022-08-17T14:05:00.606Z,1.30
2022-08-17T14:07:36.895Z,1.40
2022-08-17T14:10:14.360Z,1.23
2022-08-17T14:12:46.532Z,0.60
2022-08-17T14:15:18.086Z,1.05
2022-08-17T14:17:49.081Z,1.17
2022-08-17T14:20:21.970Z,0.93
2022-08-17T14:22:53.987Z,1.15
2022-08-17T14:25:29.428Z,0.90
2022-08-17T14:30:30.917Z,1.10
2022-08-17T14:33:02.237Z,1.27
2022-08-17T14:35:32.171Z,1.02
2022-08-17T14:38:02.197Z,0.90
2022-08-17T14:40:36.970Z,1.05
2022-08-17T14:43:06.555Z,1.15
2022-08-17T14:45:36.117Z,0.95
2022-08-17T14:48:07.711Z,1.27
2022-08-17T14:50:38.433Z,1.10
2022-08-17T14:53:09.680Z,1.15
2022-08-17T14:55:45.768Z,1.00
2022-08-17T14:58:16.765Z,1.17
2022-08-17T15:00:46.299Z,1.27
2022-08-17T15:03:15.818Z,1.20
2022-08-17T15:05:46.478Z,1.20
2022-08-17T15:08:17.946Z,1.02
2022-08-17T15:10:53.339Z,0.80
2022-08-17T15:13:26.844Z,1.23
2022-08-17T15:15:56.569Z,1.23
2022-08-17T15:18:26.502Z,0.70
2022-08-17T15:20:56.082Z,0.90
2022-08-17T15:23:28.301Z,1.10
2022-08-17T15:26:00.444Z,1.20
2022-08-17T15:28:30.233Z,1.40
2022-08-17T15:30:59.863Z,0.95
2022-08-17T15:33:31.871Z,0.98
2022-08-17T15:36:04.990Z,1.00
2022-08-17T15:38:39.289Z,1.05
2022-08-17T15:41:15.409Z,0.90
2022-08-17T15:43:45.780Z,0.80
2022-08-17T15:46:18.893Z,1.25
2022-08-17T15:48:52.041Z,1.15
2022-08-17T15:51:24.335Z,1.10
2022-08-17T15:53:56.280Z,1.02
2022-08-17T15:56:29.214Z,0.80
2022-08-17T15:58:58.831Z,0.73
2022-08-17T16:02:22.366Z,1.17
2022-08-17T16:04:29.626Z,1.00
2022-08-17T16:07:00.428Z,1.10
2022-08-17T16:09:30.594Z,0.80
2022-08-17T16:12:11.550Z,0.80
2022-08-17T16:14:41.303Z,1.00
2022-08-17T16:17:38.667Z,0.80
2022-08-17T16:20:00.985Z,1.10
2022-08-17T16:22:35.602Z,1.23
2022-08-17T16:25:08.240Z,1.05
2022-08-17T16:27:41.029Z,0.90
2022-08-17T16:30:17.053Z,1.08
2022-08-17T16:32:49.077Z,1.00
2022-08-17T16:35:18.638Z,0.95
2022-08-17T16:37:48.296Z,1.48
2022-08-17T16:40:19.936Z,1.00
2022-08-17T16:42:52.766Z,1.30
2022-08-17T16:45:24.965Z,1.08
2022-08-17T16:47:54.989Z,1.20
2022-08-17T16:50:26.775Z,1.30
2022-08-17T16:53:06.579Z,1.00
2022-08-17T16:55:37.578Z,1.00
2022-08-17T16:58:10.165Z,0.90
2022-08-17T17:00:42.072Z,0.90
2022-08-17T17:03:19.997Z,0.73
2022-08-17T17:06:01.774Z,1.35
2022-08-17T17:08:43.622Z,1.13
2022-08-17T17:11:18.048Z,1.20
2022-08-17T17:13:57.922Z,1.10
2022-08-17T17:16:36.218Z,1.48
2022-08-17T17:19:12.697Z,1.33
2022-08-17T17:21:49.639Z,1.33
2022-08-17T17:24:25.274Z,1.40
2022-08-17T17:27:13.154Z,1.45
2022-08-17T17:29:56.826Z,1.08
2022-08-17T17:32:34.581Z,1.10
2022-08-17T17:35:09.656Z,0.73
2022-08-17T17:37:42.628Z,1.05
2022-08-17T17:40:20.492Z,0.95
2022-08-17T17:42:55.148Z,1.02
2022-08-17T17:45:31.955Z,0.90
2022-08-17T17:48:01.519Z,0.98
2022-08-17T17:50:36.068Z,1.10
2022-08-17T17:53:11.349Z,1.30
2022-08-17T17:55:50.630Z,0.90
2022-08-17T17:58:35.971Z,0.90
2022-08-17T18:01:25.173Z,1.10
2022-08-17T18:04:14.279Z,1.17
2022-08-17T18:07:05.739Z,1.33
2022-08-17T18:10:01.406Z,1.10
2022-08-17T18:12:38.736Z,1.35
2022-08-17T18:15:25.120Z,0.80
2022-08-17T18:18:37.959Z,0.77
2022-08-17T18:21:15.647Z,1.23
2022-08-17T18:23:57.901Z,0.90
2022-08-17T18:26:45.124Z,0.90
2022-08-17T18:29:34.435Z,0.98
2022-08-17T18:32:46.628Z,1.40
2022-08-17T18:35:32.872Z,1.35
2022-08-17T18:38:22.444Z,1.08
2022-08-17T18:41:09.641Z,1.20
2022-08-17T18:43:53.306Z,1.30
2022-08-17T18:46:30.166Z,0.95
2022-08-17T18:49:02.021Z,1.38
2022-08-17T18:51:41.760Z,1.20
2022-08-17T18:54:22.004Z,1.40
2022-08-17T18:56:54.961Z,0.90
2022-08-17T18:59:31.774Z,1.10
2022-08-17T19:02:15.341Z,1.85
2022-08-17T19:05:01.442Z,1.20
2022-08-17T19:07:37.702Z,1.17
2022-08-17T19:10:19.615Z,1.75
2022-08-17T19:12:55.124Z,1.20
2022-08-17T19:15:37.985Z,1.30
2022-08-17T19:18:15.868Z,1.13
2022-08-17T19:20:50.295Z,1.45
2022-08-17T19:23:27.832Z,1.27
2022-08-17T19:26:01.731Z,1.20
2022-08-17T19:28:39.443Z,1.45
2022-08-17T19:31:16.761Z,1.25
2022-08-17T19:33:48.025Z,1.67
2022-08-17T19:36:32.724Z,1.40
2022-08-17T19:39:13.493Z,1.45
2022-08-17T19:41:52.961Z,1.60
2022-08-17T19:44:41.497Z,1.23
2022-08-17T19:47:43.082Z,1.70
2022-08-17T19:50:16.665Z,1.50
2022-08-17T19:52:55.441Z,1.58
2022-08-17T19:55:34.234Z,2.67
2022-08-17T19:58:10.730Z,1.50
2022-08-17T20:00:47.802Z,1.67
2022-08-17T20:03:22.197Z,1.77
2022-08-17T20:06:13.418Z,1.73
2022-08-17T20:08:49.732Z,1.45
2022-08-17T20:11:25.722Z,1.73
2022-08-17T20:14:01.863Z,1.55
2022-08-17T20:16:31.958Z,1.48
2022-08-17T20:19:05.608Z,1.88
2022-08-17T20:21:39.886Z,1.50
2022-08-17T20:24:21.839Z,1.45
2022-08-17T20:26:59.665Z,2.00
2022-08-17T20:29:39.632Z,1.80
2022-08-17T20:32:26.248Z,1.95
2022-08-17T20:35:20.815Z,1.30
2022-08-17T20:38:02.512Z,1.80
2022-08-17T20:40:35.794Z,1.35
2022-08-17T20:43:35.559Z,1.65
2022-08-17T20:46:20.374Z,1.85
2022-08-17T20:48:54.484Z,1.45
2022-08-17T20:51:32.351Z,1.88
2022-08-17T20:54:28.227Z,1.63
2022-08-17T20:57:00.477Z,1.57
2022-08-17T21:00:00.309Z,1.63
2022-08-17T21:02:32.957Z,1.90
2022-08-17T21:05:23.006Z,2.60
2022-08-17T21:07:59.741Z,2.42
2022-08-17T21:10:35.733Z,1.90
2022-08-17T21:13:34.752Z,1.90
2022-08-17T21:16:12.903Z,2.25
2022-08-17T21:18:53.827Z,1.88
2022-08-17T21:21:30.191Z,1.88
2022-08-17T21:24:20.165Z,2.05
2022-08-17T21:27:01.858Z,1.90
2022-08-17T21:29:40.222Z,1.98
2022-08-17T21:32:24.255Z,2.03
2022-08-17T21:35:32.140Z,1.90
2022-08-17T21:38:16.650Z,1.90
2022-08-17T21:40:50.011Z,2.28
2022-08-17T21:43:26.059Z,1.98
2022-08-17T21:46:03.519Z,1.67
2022-08-17T21:48:35.100Z,1.73
2022-08-17T21:51:12.257Z,1.98
2022-08-17T21:53:49.058Z,2.08
2022-08-17T21:56:26.843Z,1.70
2022-08-17T21:59:01.281Z,1.80
2022-08-17T22:01:34.609Z,2.00
2022-08-17T22:04:08.716Z,1.75
2022-08-17T22:06:55.834Z,2.00
2022-08-17T22:09:30.082Z,1.88
2022-08-17T22:12:05.052Z,1.70
2022-08-17T22:14:51.821Z,2.17
2022-08-17T22:17:26.919Z,1.92
2022-08-17T22:19:59.109Z,2.13
2022-08-17T22:22:55.151Z,2.22
2022-08-17T22:25:26.888Z,2.05
2022-08-17T22:28:00.322Z,2.33
2022-08-17T22:30:34.743Z,1.90
2022-08-17T22:33:24.878Z,1.60
2022-08-17T22:36:15.376Z,1.83
2022-08-17T22:38:45.505Z,2.10
2022-08-17T22:41:41.224Z,1.92
2022-08-17T22:44:18.186Z,2.03
2022-08-17T22:46:58.817Z,1.80
2022-08-17T22:49:32.616Z,2.10
2022-08-17T22:52:10.427Z,1.83
2022-08-17T22:54:52.523Z,1.83
2022-08-17T22:57:51.861Z,1.90
2022-08-17T23:00:37.786Z,1.48
2022-08-17T23:03:20.235Z,1.88
2022-08-17T23:05:51.543Z,2.15
2022-08-17T23:08:24.280Z,1.73
2022-08-17T23:10:53.807Z,1.70
2022-08-17T23:13:23.501Z,1.98
